sensor_id;sensor_type;location;lat;lon;timestamp;P1;durP1;ratioP1;P2;durP2;ratioP2
14688;SDS011;7432;48.728;9.154;2023-07-13T00:01:04;7.13;;;6.63;;
14688;SDS011;7432;48.728;9.154;2023-07-13T00:03:31;7.20;;;6.70;;
14688;SDS011;7432;48.728;9.154;2023-07-13T00:06:00;8.60;;;6.90;;
14688;SDS011;7432;48.728;9.154;2023-07-13T00:08:29;7.10;;;6.60;;
14688;SDS011;7432;48.728;9.154;2023-07-13T00:10:57;6.70;;;6.20;;
14688;SDS011;7432;48.728;9.154;2023-07-13T00:13:24;6.63;;;6.23;;
14688;SDS011;7432;48.728;9.154;2023-07-13T00:15:50;6.97;;;6.37;;
14688;SDS011;7432;48.728;9.154;2023-07-13T00:18:20;6.60;;;6.10;;
14688;SDS011;7432;48.728;9.154;2023-07-13T00:20:46;7.23;;;6.63;;
14688;SDS011;7432;48.728;9.154;2023-07-13T00:23:12;7.17;;;6.60;;
14688;SDS011;7432;48.728;9.154;2023-07-13T00:25:39;7.20;;;6.60;;
14688;SDS011;7432;48.728;9.154;2023-07-13T00:28:06;7.50;;;6.80;;
14688;SDS011;7432;48.728;9.154;2023-07-13T00:30:32;7.00;;;6.60;;
14688;SDS011;7432;48.728;9.154;2023-07-13T00:32:58;7.30;;;6.70;;
14688;SDS011;7432;48.728;9.154;2023-07-13T00:35:29;6.90;;;6.50;;
14688;SDS011;7432;48.728;9.154;2023-07-13T00:37:56;7.30;;;6.80;;
14688;SDS011;7432;48.728;9.154;2023-07-13T00:40:23;7.33;;;6.70;;
14688;SDS011;7432;48.728;9.154;2023-07-13T00:42:51;7.13;;;6.63;;
14688;SDS011;7432;48.728;9.154;2023-07-13T00:48:24;6.83;;;6.43;;
14688;SDS011;7432;48.728;9.154;2023-07-13T00:50:53;7.60;;;7.00;;
14688;SDS011;7432;48.728;9.154;2023-07-13T00:53:22;7.50;;;6.80;;
14688;SDS011;7432;48.728;9.154;2023-07-13T00:55:51;7.50;;;6.70;;
14688;SDS011;7432;48.728;9.154;2023-07-13T00:58:19;7.00;;;6.50;;
14688;SDS011;7432;48.728;9.154;2023-07-13T01:00:45;7.20;;;6.50;;
14688;SDS011;7432;48.728;9.154;2023-07-13T01:03:13;6.60;;;6.13;;
14688;SDS011;7432;48.728;9.154;2023-07-13T01:05:39;7.03;;;6.30;;
14688;SDS011;7432;48.728;9.154;2023-07-13T01:08:07;6.90;;;6.27;;
14688;SDS011;7432;48.728;9.154;2023-07-13T01:10:33;7.20;;;6.60;;
14688;SDS011;7432;48.728;9.154;2023-07-13T01:13:04;5.93;;;5.63;;
14688;SDS011;7432;48.728;9.154;2023-07-13T01:15:34;7.10;;;6.43;;
14688;SDS011;7432;48.728;9.154;2023-07-13T01:18:02;6.60;;;6.20;;
14688;SDS011;7432;48.728;9.154;2023-07-13T01:20:29;7.07;;;6.47;;
14688;SDS011;7432;48.728;9.154;2023-07-13T01:22:57;6.93;;;6.33;;
14688;SDS011;7432;48.728;9.154;2023-07-13T01:25:24;6.80;;;6.30;;
14688;SDS011;7432;48.728;9.154;2023-07-13T01:27:51;7.27;;;6.57;;
14688;SDS011;7432;48.728;9.154;2023-07-13T01:30:17;7.40;;;6.90;;
14688;SDS011;7432;48.728;9.154;2023-07-13T01:32:44;6.80;;;6.50;;
14688;SDS011;7432;48.728;9.154;2023-07-13T01:35:10;7.50;;;6.80;;
14688;SDS011;7432;48.728;9.154;2023-07-13T01:37:37;7.00;;;6.60;;
14688;SDS011;7432;48.728;9.154;2023-07-13T01:40:06;7.37;;;6.87;;
14688;SDS011;7432;48.728;9.154;2023-07-13T01:42:33;7.33;;;6.83;;
14688;SDS011;7432;48.728;9.154;2023-07-13T01:45:00;7.43;;;6.80;;
14688;SDS011;7432;48.728;9.154;2023-07-13T01:47:26;7.43;;;6.90;;
14688;SDS011;7432;48.728;9.154;2023-07-13T01:49:53;7.23;;;6.73;;
14688;SDS011;7432;48.728;9.154;2023-07-13T01:52:20;7.17;;;6.77;;
14688;SDS011;7432;48.728;9.154;2023-07-13T01:54:46;7.80;;;7.23;;
14688;SDS011;7432;48.728;9.154;2023-07-13T01:57:14;7.83;;;7.20;;
14688;SDS011;7432;48.728;9.154;2023-07-13T01:59:40;7.40;;;6.80;;
14688;SDS011;7432;48.728;9.154;2023-07-13T02:02:07;7.47;;;6.87;;
14688;SDS011;7432;48.728;9.154;2023-07-13T02:04:33;6.90;;;6.50;;
14688;SDS011;7432;48.728;9.154;2023-07-13T02:06:59;7.23;;;6.73;;
14688;SDS011;7432;48.728;9.154;2023-07-13T02:09:26;6.97;;;6.43;;
14688;SDS011;7432;48.728;9.154;2023-07-13T02:11:52;7.50;;;7.00;;
14688;SDS011;7432;48.728;9.154;2023-07-13T02:14:20;7.20;;;6.80;;
14688;SDS011;7432;48.728;9.154;2023-07-13T02:16:46;7.87;;;7.37;;
14688;SDS011;7432;48.728;9.154;2023-07-13T02:19:13;8.70;;;8.07;;
14688;SDS011;7432;48.728;9.154;2023-07-13T02:21:40;7.33;;;6.83;;
14688;SDS011;7432;48.728;9.154;2023-07-13T02:24:06;7.50;;;7.00;;
14688;SDS011;7432;48.728;9.154;2023-07-13T02:26:33;8.30;;;7.20;;
14688;SDS011;7432;48.728;9.154;2023-07-13T02:29:00;7.80;;;7.20;;
14688;SDS011;7432;48.728;9.154;2023-07-13T02:31:28;7.03;;;6.43;;
14688;SDS011;7432;48.728;9.154;2023-07-13T02:33:55;7.80;;;7.30;;
14688;SDS011;7432;48.728;9.154;2023-07-13T02:36:21;7.73;;;7.00;;
14688;SDS011;7432;48.728;9.154;2023-07-13T02:38:49;7.03;;;6.57;;
14688;SDS011;7432;48.728;9.154;2023-07-13T02:41:15;7.27;;;6.77;;
14688;SDS011;7432;48.728;9.154;2023-07-13T02:43:42;7.40;;;6.90;;
14688;SDS011;7432;48.728;9.154;2023-07-13T02:46:08;7.57;;;6.90;;
14688;SDS011;7432;48.728;9.154;2023-07-13T02:48:36;7.23;;;6.73;;
14688;SDS011;7432;48.728;9.154;2023-07-13T02:51:04;7.17;;;6.67;;
14688;SDS011;7432;48.728;9.154;2023-07-13T02:53:31;6.93;;;6.50;;
14688;SDS011;7432;48.728;9.154;2023-07-13T02:55:57;7.30;;;6.70;;
14688;SDS011;7432;48.728;9.154;2023-07-13T02:58:24;7.10;;;6.60;;
14688;SDS011;7432;48.728;9.154;2023-07-13T03:00:51;7.40;;;7.00;;
14688;SDS011;7432;48.728;9.154;2023-07-13T03:03:17;7.50;;;7.00;;
14688;SDS011;7432;48.728;9.154;2023-07-13T03:05:45;8.13;;;6.90;;
14688;SDS011;7432;48.728;9.154;2023-07-13T03:08:15;7.70;;;7.10;;
14688;SDS011;7432;48.728;9.154;2023-07-13T03:10:42;7.67;;;7.03;;
14688;SDS011;7432;48.728;9.154;2023-07-13T03:13:08;7.60;;;7.10;;
14688;SDS011;7432;48.728;9.154;2023-07-13T03:15:34;7.67;;;7.17;;
14688;SDS011;7432;48.728;9.154;2023-07-13T03:18:01;7.13;;;6.63;;
14688;SDS011;7432;48.728;9.154;2023-07-13T03:20:27;7.87;;;7.13;;
14688;SDS011;7432;48.728;9.154;2023-07-13T03:22:55;7.73;;;7.13;;
14688;SDS011;7432;48.728;9.154;2023-07-13T03:25:21;7.53;;;6.93;;
14688;SDS011;7432;48.728;9.154;2023-07-13T03:27:47;7.40;;;6.70;;
14688;SDS011;7432;48.728;9.154;2023-07-13T03:30:14;7.73;;;7.13;;
14688;SDS011;7432;48.728;9.154;2023-07-13T03:32:40;8.30;;;7.50;;
14688;SDS011;7432;48.728;9.154;2023-07-13T03:35:08;7.73;;;7.23;;
14688;SDS011;7432;48.728;9.154;2023-07-13T03:37:36;8.20;;;7.70;;
14688;SDS011;7432;48.728;9.154;2023-07-13T03:40:09;7.47;;;7.03;;
14688;SDS011;7432;48.728;9.154;2023-07-13T03:42:36;7.60;;;7.13;;
14688;SDS011;7432;48.728;9.154;2023-07-13T03:45:03;8.07;;;7.47;;
14688;SDS011;7432;48.728;9.154;2023-07-13T03:47:30;7.87;;;7.07;;
14688;SDS011;7432;48.728;9.154;2023-07-13T03:49:56;7.67;;;7.13;;
14688;SDS011;7432;48.728;9.154;2023-07-13T03:52:22;7.60;;;7.00;;
14688;SDS011;7432;48.728;9.154;2023-07-13T03:54:49;7.13;;;6.63;;
14688;SDS011;7432;48.728;9.154;2023-07-13T03:57:18;7.40;;;6.83;;
14688;SDS011;7432;48.728;9.154;2023-07-13T03:59:44;7.47;;;7.07;;
14688;SDS011;7432;48.728;9.154;2023-07-13T04:02:10;7.40;;;6.90;;
14688;SDS011;7432;48.728;9.154;2023-07-13T04:04:37;7.63;;;7.23;;
14688;SDS011;7432;48.728;9.154;2023-07-13T04:07:05;7.33;;;6.93;;
14688;SDS011;7432;48.728;9.154;2023-07-13T04:09:32;7.57;;;7.07;;
14688;SDS011;7432;48.728;9.154;2023-07-13T04:11:58;7.67;;;7.27;;
14688;SDS011;7432;48.728;9.154;2023-07-13T04:14:26;7.77;;;7.27;;
14688;SDS011;7432;48.728;9.154;2023-07-13T04:16:52;7.63;;;7.07;;
14688;SDS011;7432;48.728;9.154;2023-07-13T04:19:19;7.70;;;7.10;;
14688;SDS011;7432;48.728;9.154;2023-07-13T04:21:46;8.07;;;7.53;;
14688;SDS011;7432;48.728;9.154;2023-07-13T04:24:13;8.23;;;7.63;;
14688;SDS011;7432;48.728;9.154;2023-07-13T04:26:39;8.47;;;7.77;;
14688;SDS011;7432;48.728;9.154;2023-07-13T04:29:06;9.00;;;7.13;;
14688;SDS011;7432;48.728;9.154;2023-07-13T04:31:34;7.20;;;6.60;;
14688;SDS011;7432;48.728;9.154;2023-07-13T04:34:00;8.20;;;7.50;;
14688;SDS011;7432;48.728;9.154;2023-07-13T04:36:27;7.60;;;7.10;;
14688;SDS011;7432;48.728;9.154;2023-07-13T04:38:54;7.67;;;7.17;;
14688;SDS011;7432;48.728;9.154;2023-07-13T04:41:20;8.17;;;7.57;;
14688;SDS011;7432;48.728;9.154;2023-07-13T04:43:47;7.70;;;7.30;;
14688;SDS011;7432;48.728;9.154;2023-07-13T04:46:15;7.60;;;7.10;;
14688;SDS011;7432;48.728;9.154;2023-07-13T04:48:44;7.80;;;7.30;;
14688;SDS011;7432;48.728;9.154;2023-07-13T04:51:10;7.57;;;7.03;;
14688;SDS011;7432;48.728;9.154;2023-07-13T04:53:37;7.97;;;7.37;;
14688;SDS011;7432;48.728;9.154;2023-07-13T04:56:03;8.27;;;7.77;;
14688;SDS011;7432;48.728;9.154;2023-07-13T04:58:30;8.20;;;7.60;;
14688;SDS011;7432;48.728;9.154;2023-07-13T05:00:59;7.60;;;6.93;;
14688;SDS011;7432;48.728;9.154;2023-07-13T05:03:26;8.13;;;7.53;;
14688;SDS011;7432;48.728;9.154;2023-07-13T05:05:58;7.80;;;7.30;;
14688;SDS011;7432;48.728;9.154;2023-07-13T05:08:26;8.50;;;7.90;;
14688;SDS011;7432;48.728;9.154;2023-07-13T05:10:52;8.03;;;7.43;;
14688;SDS011;7432;48.728;9.154;2023-07-13T05:13:19;8.07;;;7.57;;
14688;SDS011;7432;48.728;9.154;2023-07-13T05:15:47;8.40;;;7.80;;
14688;SDS011;7432;48.728;9.154;2023-07-13T05:18:20;8.20;;;7.60;;
14688;SDS011;7432;48.728;9.154;2023-07-13T05:20:47;8.83;;;8.20;;
14688;SDS011;7432;48.728;9.154;2023-07-13T05:23:23;8.20;;;7.60;;
14688;SDS011;7432;48.728;9.154;2023-07-13T05:25:50;8.60;;;7.90;;
14688;SDS011;7432;48.728;9.154;2023-07-13T05:28:16;9.00;;;8.33;;
14688;SDS011;7432;48.728;9.154;2023-07-13T05:30:44;8.37;;;7.77;;
14688;SDS011;7432;48.728;9.154;2023-07-13T05:33:11;8.60;;;7.80;;
14688;SDS011;7432;48.728;9.154;2023-07-13T05:35:38;9.00;;;8.30;;
14688;SDS011;7432;48.728;9.154;2023-07-13T05:38:05;9.37;;;8.23;;
14688;SDS011;7432;48.728;9.154;2023-07-13T05:40:32;8.00;;;7.40;;
14688;SDS011;7432;48.728;9.154;2023-07-13T05:42:59;8.43;;;7.63;;
14688;SDS011;7432;48.728;9.154;2023-07-13T05:45:25;8.20;;;7.40;;
14688;SDS011;7432;48.728;9.154;2023-07-13T05:47:51;8.13;;;7.53;;
14688;SDS011;7432;48.728;9.154;2023-07-13T05:50:18;8.30;;;7.70;;
14688;SDS011;7432;48.728;9.154;2023-07-13T05:52:44;8.37;;;7.77;;
14688;SDS011;7432;48.728;9.154;2023-07-13T05:55:12;8.43;;;7.93;;
14688;SDS011;7432;48.728;9.154;2023-07-13T05:57:38;8.70;;;8.10;;
14688;SDS011;7432;48.728;9.154;2023-07-13T06:00:05;8.67;;;8.07;;
14688;SDS011;7432;48.728;9.154;2023-07-13T06:02:33;7.47;;;6.97;;
14688;SDS011;7432;48.728;9.154;2023-07-13T06:04:59;7.73;;;7.13;;
14688;SDS011;7432;48.728;9.154;2023-07-13T06:07:25;8.07;;;7.47;;
14688;SDS011;7432;48.728;9.154;2023-07-13T06:09:52;8.33;;;7.73;;
14688;SDS011;7432;48.728;9.154;2023-07-13T06:12:19;8.07;;;7.47;;
14688;SDS011;7432;48.728;9.154;2023-07-13T06:14:46;8.32;;;7.72;;
14688;SDS011;7432;48.728;9.154;2023-07-13T06:17:12;8.18;;;7.55;;
14688;SDS011;7432;48.728;9.154;2023-07-13T06:19:38;8.82;;;8.23;;
14688;SDS011;7432;48.728;9.154;2023-07-13T06:22:05;8.57;;;8.00;;
14688;SDS011;7432;48.728;9.154;2023-07-13T06:24:31;8.05;;;7.45;;
14688;SDS011;7432;48.728;9.154;2023-07-13T06:26:58;8.07;;;7.40;;
14688;SDS011;7432;48.728;9.154;2023-07-13T06:29:25;7.32;;;6.82;;
14688;SDS011;7432;48.728;9.154;2023-07-13T06:31:52;8.65;;;7.85;;
14688;SDS011;7432;48.728;9.154;2023-07-13T06:34:18;8.68;;;8.05;;
14688;SDS011;7432;48.728;9.154;2023-07-13T06:36:45;8.70;;;8.13;;
14688;SDS011;7432;48.728;9.154;2023-07-13T06:39:11;8.18;;;7.65;;
14688;SDS011;7432;48.728;9.154;2023-07-13T06:41:37;9.18;;;8.52;;
14688;SDS011;7432;48.728;9.154;2023-07-13T06:44:04;9.52;;;8.80;;
14688;SDS011;7432;48.728;9.154;2023-07-13T06:46:32;9.63;;;8.80;;
14688;SDS011;7432;48.728;9.154;2023-07-13T06:48:59;8.80;;;8.20;;
14688;SDS011;7432;48.728;9.154;2023-07-13T06:51:25;9.20;;;8.60;;
14688;SDS011;7432;48.728;9.154;2023-07-13T06:53:51;9.82;;;9.20;;
14688;SDS011;7432;48.728;9.154;2023-07-13T06:56:19;8.98;;;8.57;;
14688;SDS011;7432;48.728;9.154;2023-07-13T06:58:45;8.88;;;8.15;;
14688;SDS011;7432;48.728;9.154;2023-07-13T07:01:12;8.80;;;8.30;;
14688;SDS011;7432;48.728;9.154;2023-07-13T07:03:39;8.95;;;8.45;;
14688;SDS011;7432;48.728;9.154;2023-07-13T07:06:08;8.30;;;7.80;;
14688;SDS011;7432;48.728;9.154;2023-07-13T07:08:39;9.27;;;8.48;;
14688;SDS011;7432;48.728;9.154;2023-07-13T07:13:34;8.25;;;7.65;;
14688;SDS011;7432;48.728;9.154;2023-07-13T07:16:00;8.55;;;7.95;;
14688;SDS011;7432;48.728;9.154;2023-07-13T07:18:26;8.52;;;7.97;;
14688;SDS011;7432;48.728;9.154;2023-07-13T07:20:54;9.00;;;8.40;;
14688;SDS011;7432;48.728;9.154;2023-07-13T07:23:20;8.98;;;8.20;;
14688;SDS011;7432;48.728;9.154;2023-07-13T07:25:47;8.80;;;8.30;;
14688;SDS011;7432;48.728;9.154;2023-07-13T07:28:14;8.63;;;8.02;;
14688;SDS011;7432;48.728;9.154;2023-07-13T07:30:43;8.80;;;8.18;;
14688;SDS011;7432;48.728;9.154;2023-07-13T07:33:09;8.80;;;8.25;;
14688;SDS011;7432;48.728;9.154;2023-07-13T07:35:35;8.65;;;8.07;;
14688;SDS011;7432;48.728;9.154;2023-07-13T07:38:03;9.20;;;8.60;;
14688;SDS011;7432;48.728;9.154;2023-07-13T07:40:30;8.80;;;8.20;;
14688;SDS011;7432;48.728;9.154;2023-07-13T07:42:57;8.55;;;7.95;;
14688;SDS011;7432;48.728;9.154;2023-07-13T07:45:23;8.40;;;7.88;;
14688;SDS011;7432;48.728;9.154;2023-07-13T07:47:50;8.35;;;7.85;;
14688;SDS011;7432;48.728;9.154;2023-07-13T07:50:16;7.88;;;7.38;;
14688;SDS011;7432;48.728;9.154;2023-07-13T07:52:44;8.15;;;7.65;;
14688;SDS011;7432;48.728;9.154;2023-07-13T07:55:12;7.47;;;7.05;;
14688;SDS011;7432;48.728;9.154;2023-07-13T07:57:38;8.25;;;7.75;;
14688;SDS011;7432;48.728;9.154;2023-07-13T08:00:05;8.52;;;8.02;;
14688;SDS011;7432;48.728;9.154;2023-07-13T08:02:33;8.13;;;7.63;;
14688;SDS011;7432;48.728;9.154;2023-07-13T08:04:59;7.63;;;7.22;;
14688;SDS011;7432;48.728;9.154;2023-07-13T08:07:25;8.40;;;7.80;;
14688;SDS011;7432;48.728;9.154;2023-07-13T08:09:52;7.95;;;7.30;;
14688;SDS011;7432;48.728;9.154;2023-07-13T08:12:20;8.18;;;7.57;;
14688;SDS011;7432;48.728;9.154;2023-07-13T08:14:49;8.40;;;7.82;;
14688;SDS011;7432;48.728;9.154;2023-07-13T08:17:18;8.18;;;7.65;;
14688;SDS011;7432;48.728;9.154;2023-07-13T08:19:45;8.77;;;8.18;;
14688;SDS011;7432;48.728;9.154;2023-07-13T08:22:11;8.15;;;7.63;;
14688;SDS011;7432;48.728;9.154;2023-07-13T08:24:38;7.93;;;7.43;;
14688;SDS011;7432;48.728;9.154;2023-07-13T08:27:04;8.18;;;7.78;;
14688;SDS011;7432;48.728;9.154;2023-07-13T08:29:32;8.60;;;8.00;;
14688;SDS011;7432;48.728;9.154;2023-07-13T08:31:59;7.65;;;7.25;;
14688;SDS011;7432;48.728;9.154;2023-07-13T08:34:25;7.88;;;7.30;;
14688;SDS011;7432;48.728;9.154;2023-07-13T08:36:52;7.47;;;6.78;;
14688;SDS011;7432;48.728;9.154;2023-07-13T08:39:18;8.15;;;7.47;;
14688;SDS011;7432;48.728;9.154;2023-07-13T08:41:44;8.30;;;7.80;;
14688;SDS011;7432;48.728;9.154;2023-07-13T08:44:17;8.75;;;8.10;;
14688;SDS011;7432;48.728;9.154;2023-07-13T08:46:51;8.77;;;8.18;;
14688;SDS011;7432;48.728;9.154;2023-07-13T08:49:21;8.60;;;8.10;;
14688;SDS011;7432;48.728;9.154;2023-07-13T08:51:49;9.10;;;8.60;;
14688;SDS011;7432;48.728;9.154;2023-07-13T08:54:20;9.00;;;8.50;;
14688;SDS011;7432;48.728;9.154;2023-07-13T08:56:52;8.73;;;8.18;;
14688;SDS011;7432;48.728;9.154;2023-07-13T08:59:20;8.00;;;7.50;;
14688;SDS011;7432;48.728;9.154;2023-07-13T09:02:01;8.48;;;7.90;;
14688;SDS011;7432;48.728;9.154;2023-07-13T09:04:43;8.43;;;7.93;;
14688;SDS011;7432;48.728;9.154;2023-07-13T09:07:16;9.20;;;8.52;;
14688;SDS011;7432;48.728;9.154;2023-07-13T09:09:55;9.10;;;8.43;;
14688;SDS011;7432;48.728;9.154;2023-07-13T09:12:31;8.60;;;8.00;;
14688;SDS011;7432;48.728;9.154;2023-07-13T09:15:11;9.32;;;8.70;;
14688;SDS011;7432;48.728;9.154;2023-07-13T09:17:49;9.75;;;9.05;;
14688;SDS011;7432;48.728;9.154;2023-07-13T09:20:20;9.98;;;9.18;;
14688;SDS011;7432;48.728;9.154;2023-07-13T09:22:51;10.35;;;9.45;;
14688;SDS011;7432;48.728;9.154;2023-07-13T09:25:21;9.77;;;9.10;;
14688;SDS011;7432;48.728;9.154;2023-07-13T09:27:53;10.43;;;9.70;;
14688;SDS011;7432;48.728;9.154;2023-07-13T09:30:24;9.52;;;8.82;;
14688;SDS011;7432;48.728;9.154;2023-07-13T09:33:01;9.98;;;9.10;;
14688;SDS011;7432;48.728;9.154;2023-07-13T09:35:28;9.50;;;8.93;;
14688;SDS011;7432;48.728;9.154;2023-07-13T09:37:58;9.10;;;8.50;;
14688;SDS011;7432;48.728;9.154;2023-07-13T09:40:32;9.95;;;9.25;;
14688;SDS011;7432;48.728;9.154;2023-07-13T09:43:06;9.55;;;8.80;;
14688;SDS011;7432;48.728;9.154;2023-07-13T09:45:36;8.63;;;8.02;;
14688;SDS011;7432;48.728;9.154;2023-07-13T09:48:06;9.70;;;8.98;;
14688;SDS011;7432;48.728;9.154;2023-07-13T09:50:33;9.50;;;8.90;;
14688;SDS011;7432;48.728;9.154;2023-07-13T09:53:00;9.10;;;8.50;;
14688;SDS011;7432;48.728;9.154;2023-07-13T09:55:28;8.60;;;8.00;;
14688;SDS011;7432;48.728;9.154;2023-07-13T09:58:02;8.75;;;8.25;;
14688;SDS011;7432;48.728;9.154;2023-07-13T10:00:30;8.95;;;8.43;;
14688;SDS011;7432;48.728;9.154;2023-07-13T10:02:58;8.80;;;8.30;;
14688;SDS011;7432;48.728;9.154;2023-07-13T10:05:27;9.45;;;8.82;;
14688;SDS011;7432;48.728;9.154;2023-07-13T10:07:55;8.60;;;8.10;;
14688;SDS011;7432;48.728;9.154;2023-07-13T10:10:22;9.45;;;8.85;;
14688;SDS011;7432;48.728;9.154;2023-07-13T10:12:49;9.10;;;8.50;;
14688;SDS011;7432;48.728;9.154;2023-07-13T10:15:18;9.32;;;8.73;;
14688;SDS011;7432;48.728;9.154;2023-07-13T10:17:46;9.25;;;8.55;;
14688;SDS011;7432;48.728;9.154;2023-07-13T10:20:13;9.90;;;9.20;;
14688;SDS011;7432;48.728;9.154;2023-07-13T10:22:42;9.35;;;8.52;;
14688;SDS011;7432;48.728;9.154;2023-07-13T10:25:14;8.13;;;7.53;;
14688;SDS011;7432;48.728;9.154;2023-07-13T10:27:43;9.10;;;8.50;;
14688;SDS011;7432;48.728;9.154;2023-07-13T10:30:12;8.38;;;7.78;;
14688;SDS011;7432;48.728;9.154;2023-07-13T10:32:41;8.90;;;8.35;;
14688;SDS011;7432;48.728;9.154;2023-07-13T10:35:09;7.60;;;6.93;;
14688;SDS011;7432;48.728;9.154;2023-07-13T10:37:39;8.57;;;7.97;;
14688;SDS011;7432;48.728;9.154;2023-07-13T10:40:12;9.52;;;8.73;;
14688;SDS011;7432;48.728;9.154;2023-07-13T10:42:40;9.60;;;9.10;;
14688;SDS011;7432;48.728;9.154;2023-07-13T10:45:12;10.20;;;9.40;;
14688;SDS011;7432;48.728;9.154;2023-07-13T10:47:41;9.88;;;9.20;;
14688;SDS011;7432;48.728;9.154;2023-07-13T10:50:08;9.95;;;9.00;;
14688;SDS011;7432;48.728;9.154;2023-07-13T10:52:45;9.80;;;9.00;;
14688;SDS011;7432;48.728;9.154;2023-07-13T10:58:01;8.82;;;8.32;;
14688;SDS011;7432;48.728;9.154;2023-07-13T11:00:30;9.90;;;9.00;;
14688;SDS011;7432;48.728;9.154;2023-07-13T11:02:59;9.68;;;9.07;;
14688;SDS011;7432;48.728;9.154;2023-07-13T11:05:29;9.70;;;9.10;;
14688;SDS011;7432;48.728;9.154;2023-07-13T11:08:03;8.88;;;8.30;;
14688;SDS011;7432;48.728;9.154;2023-07-13T11:10:46;8.45;;;7.95;;
14688;SDS011;7432;48.728;9.154;2023-07-13T11:19:28;9.23;;;8.63;;
14688;SDS011;7432;48.728;9.154;2023-07-13T11:22:12;9.25;;;8.60;;
14688;SDS011;7432;48.728;9.154;2023-07-13T11:24:49;8.43;;;7.90;;
14688;SDS011;7432;48.728;9.154;2023-07-13T11:27:22;9.13;;;8.52;;
14688;SDS011;7432;48.728;9.154;2023-07-13T11:30:06;8.65;;;8.15;;
14688;SDS011;7432;48.728;9.154;2023-07-13T11:32:35;8.63;;;8.02;;
14688;SDS011;7432;48.728;9.154;2023-07-13T11:35:02;9.10;;;8.50;;
14688;SDS011;7432;48.728;9.154;2023-07-13T11:37:28;9.10;;;8.55;;
14688;SDS011;7432;48.728;9.154;2023-07-13T11:39:58;9.40;;;8.70;;
14688;SDS011;7432;48.728;9.154;2023-07-13T11:42:24;9.63;;;8.90;;
14688;SDS011;7432;48.728;9.154;2023-07-13T11:44:53;9.35;;;8.85;;
14688;SDS011;7432;48.728;9.154;2023-07-13T11:47:21;9.70;;;9.10;;
14688;SDS011;7432;48.728;9.154;2023-07-13T11:49:50;9.80;;;9.20;;
14688;SDS011;7432;48.728;9.154;2023-07-13T11:52:21;9.98;;;9.35;;
14688;SDS011;7432;48.728;9.154;2023-07-13T11:54:54;9.10;;;8.50;;
14688;SDS011;7432;48.728;9.154;2023-07-13T11:57:24;8.88;;;8.38;;
14688;SDS011;7432;48.728;9.154;2023-07-13T11:59:54;10.00;;;9.20;;
14688;SDS011;7432;48.728;9.154;2023-07-13T12:02:24;10.65;;;8.40;;
14688;SDS011;7432;48.728;9.154;2023-07-13T12:04:55;9.43;;;8.82;;
14688;SDS011;7432;48.728;9.154;2023-07-13T12:07:22;9.45;;;8.75;;
14688;SDS011;7432;48.728;9.154;2023-07-13T12:09:48;9.35;;;8.75;;
14688;SDS011;7432;48.728;9.154;2023-07-13T12:12:17;9.63;;;8.90;;
14688;SDS011;7432;48.728;9.154;2023-07-13T12:14:46;9.30;;;8.65;;
14688;SDS011;7432;48.728;9.154;2023-07-13T12:17:13;8.95;;;8.35;;
14688;SDS011;7432;48.728;9.154;2023-07-13T12:19:42;9.52;;;8.82;;
14688;SDS011;7432;48.728;9.154;2023-07-13T12:22:08;8.60;;;8.10;;
14688;SDS011;7432;48.728;9.154;2023-07-13T12:24:37;9.10;;;8.50;;
14688;SDS011;7432;48.728;9.154;2023-07-13T12:27:06;9.52;;;8.82;;
14688;SDS011;7432;48.728;9.154;2023-07-13T12:29:49;9.38;;;8.80;;
14688;SDS011;7432;48.728;9.154;2023-07-13T12:32:18;8.60;;;8.10;;
14688;SDS011;7432;48.728;9.154;2023-07-13T12:34:52;10.15;;;9.35;;
14688;SDS011;7432;48.728;9.154;2023-07-13T12:37:20;10.10;;;9.40;;
14688;SDS011;7432;48.728;9.154;2023-07-13T12:39:47;9.00;;;8.50;;
14688;SDS011;7432;48.728;9.154;2023-07-13T12:42:19;9.90;;;9.25;;
14688;SDS011;7432;48.728;9.154;2023-07-13T12:44:50;10.27;;;9.68;;
14688;SDS011;7432;48.728;9.154;2023-07-13T12:47:20;10.07;;;9.30;;
14688;SDS011;7432;48.728;9.154;2023-07-13T12:49:47;9.85;;;9.05;;
14688;SDS011;7432;48.728;9.154;2023-07-13T12:52:17;9.45;;;8.65;;
14688;SDS011;7432;48.728;9.154;2023-07-13T12:54:53;10.05;;;9.30;;
14688;SDS011;7432;48.728;9.154;2023-07-13T12:57:22;10.15;;;9.50;;
14688;SDS011;7432;48.728;9.154;2023-07-13T12:59:52;9.75;;;9.15;;
14688;SDS011;7432;48.728;9.154;2023-07-13T13:02:26;10.13;;;9.43;;
14688;SDS011;7432;48.728;9.154;2023-07-13T13:04:56;9.55;;;8.95;;
14688;SDS011;7432;48.728;9.154;2023-07-13T13:07:24;9.45;;;8.85;;
14688;SDS011;7432;48.728;9.154;2023-07-13T13:09:51;9.70;;;9.00;;
14688;SDS011;7432;48.728;9.154;2023-07-13T13:12:19;9.70;;;8.90;;
14688;SDS011;7432;48.728;9.154;2023-07-13T13:14:45;10.30;;;9.60;;
14688;SDS011;7432;48.728;9.154;2023-07-13T13:17:18;10.40;;;9.57;;
14688;SDS011;7432;48.728;9.154;2023-07-13T13:19:46;10.18;;;9.40;;
14688;SDS011;7432;48.728;9.154;2023-07-13T13:22:13;10.20;;;9.52;;
14688;SDS011;7432;48.728;9.154;2023-07-13T13:24:39;9.52;;;8.90;;
14688;SDS011;7432;48.728;9.154;2023-07-13T13:27:08;9.60;;;9.00;;
14688;SDS011;7432;48.728;9.154;2023-07-13T13:29:42;10.00;;;9.18;;
14688;SDS011;7432;48.728;9.154;2023-07-13T13:32:10;9.20;;;8.60;;
14688;SDS011;7432;48.728;9.154;2023-07-13T13:34:39;10.23;;;9.55;;
14688;SDS011;7432;48.728;9.154;2023-07-13T13:37:10;9.80;;;9.20;;
14688;SDS011;7432;48.728;9.154;2023-07-13T13:39:44;9.82;;;8.98;;
14688;SDS011;7432;48.728;9.154;2023-07-13T13:42:10;10.02;;;9.25;;
14688;SDS011;7432;48.728;9.154;2023-07-13T13:44:37;10.18;;;9.18;;
14688;SDS011;7432;48.728;9.154;2023-07-13T13:47:03;10.75;;;9.90;;
14688;SDS011;7432;48.728;9.154;2023-07-13T13:49:30;10.30;;;9.70;;
14688;SDS011;7432;48.728;9.154;2023-07-13T13:51:58;10.30;;;9.60;;
14688;SDS011;7432;48.728;9.154;2023-07-13T13:54:24;10.00;;;9.30;;
14688;SDS011;7432;48.728;9.154;2023-07-13T13:56:51;9.85;;;9.15;;
14688;SDS011;7432;48.728;9.154;2023-07-13T13:59:18;9.80;;;9.00;;
14688;SDS011;7432;48.728;9.154;2023-07-13T14:01:46;9.07;;;8.50;;
14688;SDS011;7432;48.728;9.154;2023-07-13T14:04:14;9.88;;;9.27;;
14688;SDS011;7432;48.728;9.154;2023-07-13T14:06:43;10.38;;;9.43;;
14688;SDS011;7432;48.728;9.154;2023-07-13T14:09:13;9.40;;;8.80;;
14688;SDS011;7432;48.728;9.154;2023-07-13T14:11:41;9.25;;;8.70;;
14688;SDS011;7432;48.728;9.154;2023-07-13T14:14:09;10.23;;;9.23;;
14688;SDS011;7432;48.728;9.154;2023-07-13T14:16:43;9.40;;;8.90;;
14688;SDS011;7432;48.728;9.154;2023-07-13T14:19:11;10.00;;;9.30;;
14688;SDS011;7432;48.728;9.154;2023-07-13T14:21:39;9.20;;;8.35;;
14688;SDS011;7432;48.728;9.154;2023-07-13T14:24:05;9.80;;;9.20;;
14688;SDS011;7432;48.728;9.154;2023-07-13T14:26:35;9.90;;;9.32;;
14688;SDS011;7432;48.728;9.154;2023-07-13T14:29:04;9.40;;;8.80;;
14688;SDS011;7432;48.728;9.154;2023-07-13T14:31:36;9.15;;;8.55;;
14688;SDS011;7432;48.728;9.154;2023-07-13T14:34:03;9.77;;;9.10;;
14688;SDS011;7432;48.728;9.154;2023-07-13T14:36:29;9.85;;;9.00;;
14688;SDS011;7432;48.728;9.154;2023-07-13T14:38:58;9.80;;;9.02;;
14688;SDS011;7432;48.728;9.154;2023-07-13T14:41:26;9.38;;;8.80;;
14688;SDS011;7432;48.728;9.154;2023-07-13T14:43:54;9.55;;;8.70;;
14688;SDS011;7432;48.728;9.154;2023-07-13T14:46:30;13.32;;;9.20;;
14688;SDS011;7432;48.728;9.154;2023-07-13T14:48:59;9.40;;;8.60;;
14688;SDS011;7432;48.728;9.154;2023-07-13T14:51:28;9.20;;;8.45;;
14688;SDS011;7432;48.728;9.154;2023-07-13T14:53:55;9.80;;;8.93;;
14688;SDS011;7432;48.728;9.154;2023-07-13T14:56:22;9.20;;;8.50;;
14688;SDS011;7432;48.728;9.154;2023-07-13T14:58:48;9.50;;;8.77;;
14688;SDS011;7432;48.728;9.154;2023-07-13T15:01:16;9.57;;;8.80;;
14688;SDS011;7432;48.728;9.154;2023-07-13T15:03:43;9.98;;;9.32;;
14688;SDS011;7432;48.728;9.154;2023-07-13T15:06:13;9.63;;;9.10;;
14688;SDS011;7432;48.728;9.154;2023-07-13T15:08:40;9.68;;;9.07;;
14688;SDS011;7432;48.728;9.154;2023-07-13T15:11:07;9.50;;;8.80;;
14688;SDS011;7432;48.728;9.154;2023-07-13T15:13:37;9.35;;;8.65;;
14688;SDS011;7432;48.728;9.154;2023-07-13T15:16:04;9.63;;;8.93;;
14688;SDS011;7432;48.728;9.154;2023-07-13T15:18:33;8.52;;;8.00;;
14688;SDS011;7432;48.728;9.154;2023-07-13T15:21:08;8.60;;;8.10;;